createdAt,value
2023-02-27T00:00:14.654Z,102021.03
2023-02-27T00:02:18.628Z,102020.19
2023-02-27T00:04:22.047Z,102017.47
2023-02-27T00:06:25.716Z,102020.19
2023-02-27T00:08:29.126Z,102021.84
2023-02-27T00:10:32.561Z,102016.78
2023-02-27T00:12:37.828Z,102021.03
2023-02-27T00:14:43.227Z,102016.09
2023-02-27T00:16:48.004Z,102024.50
2023-02-27T00:18:51.342Z,102018.44
2023-02-27T00:20:54.997Z,102019.09
2023-02-27T00:22:58.659Z,102023.00
2023-02-27T00:25:02.001Z,101988.06
2023-02-27T00:27:05.484Z,102002.03
2023-02-27T00:29:09.546Z,102017.75
2023-02-27T00:31:12.952Z,102023.31
2023-02-27T00:33:17.731Z,102028.00
2023-02-27T00:35:21.613Z,102033.78
2023-02-27T00:37:25.562Z,102021.47
2023-02-27T00:39:29.936Z,102023.97
2023-02-27T00:41:33.307Z,102026.06
2023-02-27T00:43:37.426Z,102023.72
2023-02-27T00:45:40.905Z,102017.28
2023-02-27T00:47:44.480Z,102024.69
2023-02-27T00:49:49.381Z,102023.63
2023-02-27T00:51:53.777Z,102022.84
2023-02-27T00:53:57.141Z,102023.63
2023-02-27T00:56:00.547Z,102023.84
2023-02-27T00:58:04.109Z,102027.44
2023-02-27T01:00:10.085Z,102025.16
2023-02-27T01:02:14.150Z,102018.22
2023-02-27T01:04:17.551Z,102019.75
2023-02-27T01:06:22.485Z,102020.56
2023-02-27T01:08:25.902Z,101980.22
2023-02-27T01:10:29.720Z,102022.84
2023-02-27T01:12:33.588Z,102023.63
2023-02-27T01:14:37.143Z,102026.63
2023-02-27T01:16:40.569Z,102015.03
2023-02-27T01:18:44.542Z,102022.25
2023-02-27T01:20:47.847Z,102018.22
2023-02-27T01:22:52.598Z,102012.16
2023-02-27T01:24:55.961Z,102021.56
2023-02-27T01:26:59.592Z,102016.41
2023-02-27T01:29:04.664Z,102012.03
2023-02-27T01:31:10.114Z,102016.09
2023-02-27T01:33:13.804Z,102018.28
2023-02-27T01:35:17.913Z,102015.00
2023-02-27T01:37:21.534Z,102008.31
2023-02-27T01:39:27.027Z,101997.00
2023-02-27T01:41:31.602Z,102011.03
2023-02-27T01:43:35.680Z,102010.00
2023-02-27T01:45:41.090Z,101983.03
2023-02-27T01:47:49.365Z,102009.75
2023-02-27T01:49:52.638Z,102016.47
2023-02-27T01:52:01.889Z,101977.69
2023-02-27T01:54:07.575Z,102003.78
2023-02-27T01:56:19.916Z,102002.72
2023-02-27T01:58:24.100Z,102002.25
2023-02-27T02:00:28.410Z,102008.81
2023-02-27T02:02:37.557Z,102011.16
2023-02-27T02:04:42.210Z,102004.09
2023-02-27T02:06:48.545Z,101966.47
2023-02-27T02:08:55.059Z,101990.78
2023-02-27T02:10:59.936Z,102010.69
2023-02-27T02:13:04.886Z,102002.94
2023-02-27T02:15:09.441Z,101999.38
2023-02-27T02:17:16.871Z,101992.91
2023-02-27T02:19:54.381Z,101992.91
2023-02-27T02:22:50.018Z,101999.97
2023-02-27T02:25:27.071Z,101960.31
2023-02-27T02:27:46.298Z,101988.41
2023-02-27T02:30:26.923Z,101986.59
2023-02-27T02:33:15.126Z,101980.47
2023-02-27T02:35:51.303Z,101980.47
2023-02-27T02:38:35.597Z,101989.00
2023-02-27T02:40:48.138Z,101985.13
2023-02-27T02:42:56.529Z,101994.53
2023-02-27T02:45:11.721Z,101994.00
2023-02-27T02:47:26.604Z,101997.09
2023-02-27T02:49:36.761Z,101995.31
2023-02-27T02:51:49.398Z,101955.38
2023-02-27T02:54:01.340Z,101940.38
2023-02-27T02:56:11.888Z,102000.22
2023-02-27T02:58:22.662Z,101999.81
2023-02-27T03:00:31.112Z,102001.09
2023-02-27T03:02:40.237Z,101993.78
2023-02-27T03:04:50.680Z,102002.03
2023-02-27T03:06:59.542Z,102001.78
2023-02-27T03:09:08.486Z,102002.44
2023-02-27T03:11:13.400Z,102009.00
2023-02-27T03:13:23.512Z,102010.28
2023-02-27T03:15:30.989Z,102008.25
2023-02-27T03:17:44.016Z,102013.91
2023-02-27T03:19:55.038Z,102011.06
2023-02-27T03:22:08.245Z,102013.41
2023-02-27T03:24:21.542Z,102013.28
2023-02-27T03:26:43.532Z,102019.69
2023-02-27T03:28:53.164Z,102016.38
2023-02-27T03:31:01.601Z,102026.41
2023-02-27T03:33:12.838Z,102018.53
2023-02-27T03:35:17.841Z,102017.63
2023-02-27T03:37:31.916Z,102017.28
2023-02-27T03:39:43.154Z,102019.47
2023-02-27T03:41:53.007Z,102026.00
2023-02-27T03:44:21.972Z,102027.19
2023-02-27T03:46:28.918Z,102028.34
2023-02-27T03:48:32.591Z,102027.19
2023-02-27T03:50:37.041Z,102029.63
2023-02-27T03:52:41.497Z,102033.47
2023-02-27T03:54:52.637Z,102028.34
2023-02-27T03:57:01.664Z,102029.50
2023-02-27T03:59:06.170Z,102034.00
2023-02-27T04:01:12.289Z,102033.22
2023-02-27T04:03:15.703Z,102037.88
2023-02-27T04:05:19.585Z,102038.13
2023-02-27T04:07:37.635Z,102043.25
2023-02-27T04:09:59.640Z,102032.72
2023-02-27T04:12:19.362Z,102041.59
2023-02-27T04:14:39.444Z,102037.88
2023-02-27T04:17:04.688Z,102042.34
2023-02-27T04:19:21.716Z,102045.47
2023-02-27T04:21:35.905Z,102042.50
2023-02-27T04:23:42.025Z,102050.44
2023-02-27T04:25:55.712Z,102043.13
2023-02-27T04:28:10.150Z,102046.72
2023-02-27T04:30:26.279Z,102050.44
2023-02-27T04:32:36.098Z,102042.47
2023-02-27T04:34:42.831Z,102058.16
2023-02-27T04:36:52.725Z,102050.06
2023-02-27T04:39:04.259Z,102050.44
2023-02-27T04:41:13.087Z,102049.28
2023-02-27T04:43:20.726Z,102050.34
2023-02-27T04:45:26.910Z,102057.00
2023-02-27T04:47:34.888Z,102060.47
2023-02-27T04:49:45.326Z,102054.69
2023-02-27T04:51:54.759Z,102060.75
2023-02-27T04:54:02.749Z,102064.22
2023-02-27T04:56:11.575Z,102064.88
2023-02-27T04:58:19.809Z,102069.22
2023-02-27T05:00:26.698Z,102074.09
2023-02-27T05:02:34.856Z,102073.34
2023-02-27T05:04:41.128Z,102072.31
2023-02-27T05:06:46.567Z,102075.66
2023-02-27T05:09:00.353Z,102070.72
2023-02-27T05:11:10.148Z,102083.59
2023-02-27T05:13:17.410Z,101994.97
2023-02-27T05:15:28.495Z,102076.25
2023-02-27T05:17:35.525Z,102067.63
2023-02-27T05:19:41.066Z,102075.25
2023-02-27T05:21:53.124Z,102060.69
2023-02-27T05:24:07.746Z,102083.06
2023-02-27T05:26:18.218Z,102078.81
2023-02-27T05:28:30.982Z,102083.84
2023-02-27T05:30:41.143Z,101968.31
2023-02-27T05:32:50.701Z,102081.03
2023-02-27T05:35:03.237Z,102080.88
2023-02-27T05:37:13.666Z,102048.47
2023-02-27T05:39:21.581Z,102096.78
2023-02-27T05:41:29.603Z,102089.59
2023-02-27T05:43:38.629Z,102105.94
2023-02-27T05:45:46.157Z,102093.34
2023-02-27T05:47:57.305Z,102091.78
2023-02-27T05:50:07.764Z,102091.88
2023-02-27T05:52:15.940Z,102099.97
2023-02-27T05:54:34.543Z,101984.69
2023-02-27T05:56:40.099Z,102103.03
2023-02-27T05:58:50.084Z,102098.16
2023-02-27T06:00:59.183Z,102091.53
2023-02-27T06:03:02.851Z,102097.47
2023-02-27T06:05:08.185Z,101977.97
2023-02-27T06:07:13.300Z,102077.34
2023-02-27T06:09:17.486Z,102108.00
2023-02-27T06:11:21.477Z,102111.56
2023-02-27T06:13:26.101Z,102109.75
2023-02-27T06:15:29.620Z,102113.09
2023-02-27T06:17:34.809Z,102110.06
2023-02-27T06:19:38.712Z,102113.28
2023-02-27T06:21:42.228Z,102119.00
2023-02-27T06:23:45.604Z,102119.66
2023-02-27T06:25:50.336Z,102115.22
2023-02-27T06:27:54.229Z,102097.09
2023-02-27T06:29:57.613Z,102111.09
2023-02-27T06:32:01.514Z,102120.44
2023-02-27T06:34:06.926Z,102121.69
2023-02-27T06:36:10.265Z,102122.38
2023-02-27T06:38:13.680Z,102124.34
2023-02-27T06:40:19.078Z,102140.41
2023-02-27T06:42:22.581Z,102141.78
2023-02-27T06:44:26.052Z,102139.56
2023-02-27T06:46:30.703Z,102135.06
2023-02-27T06:48:34.810Z,102140.00
2023-02-27T06:50:39.487Z,102140.06
2023-02-27T06:52:43.449Z,102145.59
2023-02-27T06:54:46.898Z,102119.88
2023-02-27T06:56:51.752Z,102149.56
2023-02-27T06:58:55.293Z,102150.19
2023-02-27T07:01:02.689Z,102150.75
2023-02-27T07:03:06.120Z,102151.56
2023-02-27T07:05:11.919Z,102154.94
2023-02-27T07:07:34.420Z,102157.47
2023-02-27T07:09:40.602Z,102153.78
2023-02-27T07:11:43.894Z,102149.94
2023-02-27T07:13:48.580Z,102078.88
2023-02-27T07:15:52.501Z,102145.75
2023-02-27T07:17:55.908Z,102158.25
2023-02-27T07:20:00.261Z,102151.06
2023-02-27T07:22:03.635Z,102148.94
2023-02-27T07:24:09.958Z,102152.97
2023-02-27T07:26:14.045Z,102159.25
2023-02-27T07:28:18.939Z,102157.81
2023-02-27T07:30:22.696Z,102166.94
2023-02-27T07:32:26.978Z,102166.59
2023-02-27T07:34:30.341Z,102165.38
2023-02-27T07:36:33.952Z,102168.06
2023-02-27T07:38:38.020Z,102170.34
2023-02-27T07:40:43.079Z,102175.44
2023-02-27T07:42:49.002Z,102179.97
2023-02-27T07:44:53.042Z,102177.41
2023-02-27T07:46:56.509Z,102178.59
2023-02-27T07:49:00.421Z,102190.69
2023-02-27T07:51:03.826Z,102182.69
2023-02-27T07:53:08.447Z,102188.09
2023-02-27T07:55:13.555Z,102189.53
2023-02-27T07:57:20.441Z,102189.75
2023-02-27T07:59:23.808Z,102196.31
2023-02-27T08:01:27.919Z,102193.47
2023-02-27T08:03:31.284Z,102199.28
2023-02-27T08:05:34.745Z,102186.53
2023-02-27T08:07:38.279Z,102190.16
2023-02-27T08:09:41.633Z,102194.50
2023-02-27T08:11:47.798Z,102167.63
2023-02-27T08:14:00.689Z,102193.25
2023-02-27T08:16:05.100Z,102193.34
2023-02-27T08:18:08.838Z,102190.66
2023-02-27T08:20:13.732Z,102194.25
2023-02-27T08:22:17.667Z,102190.28
2023-02-27T08:24:21.031Z,102193.75
2023-02-27T08:26:24.483Z,102194.78
2023-02-27T08:28:28.379Z,102190.13
2023-02-27T08:30:33.658Z,102185.66
2023-02-27T08:32:38.651Z,102179.84
2023-02-27T08:34:42.224Z,102201.59
2023-02-27T08:36:45.672Z,102198.13
2023-02-27T08:38:49.247Z,102197.47
2023-02-27T08:40:54.211Z,102206.50
2023-02-27T08:42:57.706Z,102203.03
2023-02-27T08:45:01.201Z,102198.28
2023-02-27T08:47:05.988Z,102199.94
2023-02-27T08:49:10.495Z,102184.09
2023-02-27T08:51:13.927Z,102197.84
2023-02-27T08:53:17.609Z,102193.69
2023-02-27T08:55:21.497Z,102196.28
2023-02-27T08:57:25.018Z,102190.06
2023-02-27T08:59:28.662Z,102199.88
2023-02-27T09:01:34.702Z,102195.38
2023-02-27T09:03:39.553Z,102196.63
2023-02-27T09:05:43.037Z,102203.75
2023-02-27T09:07:46.704Z,102201.16
2023-02-27T09:09:50.206Z,102190.31
2023-02-27T09:11:54.062Z,102190.44
2023-02-27T09:13:58.803Z,102161.13
2023-02-27T09:16:02.130Z,102203.00
2023-02-27T09:18:06.927Z,102200.56
2023-02-27T09:20:13.531Z,102203.38
2023-02-27T09:22:16.867Z,102205.44
2023-02-27T09:24:21.030Z,102190.53
2023-02-27T09:26:39.752Z,102206.84
2023-02-27T09:28:45.542Z,102191.88
2023-02-27T09:30:49.061Z,102213.41
2023-02-27T09:32:52.565Z,102206.78
2023-02-27T09:34:55.990Z,102209.16
2023-02-27T09:37:01.688Z,102204.09
2023-02-27T09:39:05.392Z,102203.88
2023-02-27T09:41:22.010Z,102203.03
2023-02-27T09:43:31.819Z,102203.56
2023-02-27T09:45:39.544Z,102174.00
2023-02-27T09:47:50.706Z,102198.66
2023-02-27T09:50:00.374Z,102160.78
2023-02-27T09:52:05.084Z,102203.47
2023-02-27T09:54:08.686Z,102206.56
2023-02-27T09:56:23.833Z,102204.63
2023-02-27T09:58:38.952Z,102204.66
2023-02-27T10:00:49.960Z,102204.56
2023-02-27T10:03:00.885Z,102205.06
2023-02-27T10:05:14.082Z,102169.44
2023-02-27T10:07:26.530Z,102203.19
2023-02-27T10:09:39.199Z,102165.09
2023-02-27T10:11:54.474Z,102207.34
2023-02-27T10:14:05.743Z,102205.19
2023-02-27T10:16:13.191Z,102205.41
2023-02-27T10:18:28.304Z,102208.31
2023-02-27T10:20:36.789Z,102147.78
2023-02-27T10:22:46.077Z,102217.91
2023-02-27T10:24:53.979Z,102215.69
2023-02-27T10:26:59.371Z,102217.81
2023-02-27T10:29:15.273Z,102220.16
2023-02-27T10:31:24.046Z,102209.09
2023-02-27T10:33:33.974Z,102221.53
2023-02-27T10:35:40.030Z,102187.50
2023-02-27T10:37:50.278Z,102217.00
2023-02-27T10:39:56.118Z,102212.97
2023-02-27T10:42:04.628Z,102226.34
2023-02-27T10:44:09.631Z,102218.25
2023-02-27T10:46:17.029Z,102226.56
2023-02-27T10:48:22.568Z,102226.28
2023-02-27T10:50:28.916Z,102222.56
2023-02-27T10:52:32.452Z,102213.59
2023-02-27T10:54:38.663Z,102191.41
2023-02-27T10:56:45.691Z,102216.78
2023-02-27T10:59:03.734Z,102223.56
2023-02-27T11:01:08.976Z,102199.59
2023-02-27T11:03:22.117Z,102218.53
2023-02-27T11:05:28.250Z,102192.63
2023-02-27T11:07:34.268Z,102215.28
2023-02-27T11:09:39.506Z,102213.50
2023-02-27T11:11:43.627Z,102214.59
2023-02-27T11:13:47.232Z,102213.00
2023-02-27T11:16:04.608Z,102202.44
2023-02-27T11:18:25.539Z,102212.75
2023-02-27T11:20:37.717Z,102207.25
2023-02-27T11:22:42.640Z,102195.06
2023-02-27T11:24:48.471Z,102215.03
2023-02-27T11:26:57.644Z,102201.78
2023-02-27T11:29:18.387Z,102193.19
2023-02-27T11:31:24.382Z,102197.31
2023-02-27T11:33:30.088Z,102192.22
2023-02-27T11:35:35.545Z,102180.47
2023-02-27T11:37:41.272Z,102175.72
2023-02-27T11:39:52.218Z,102174.72
2023-02-27T11:41:57.884Z,102184.25
2023-02-27T11:44:05.434Z,102168.19
2023-02-27T11:46:24.389Z,102165.28
2023-02-27T11:48:41.006Z,102166.75
2023-02-27T11:51:00.238Z,102165.06
2023-02-27T11:53:21.684Z,102139.88
2023-02-27T11:55:29.238Z,102165.59
2023-02-27T11:57:36.473Z,102166.66
2023-02-27T11:59:48.013Z,102150.47
2023-02-27T12:01:57.591Z,102163.69
2023-02-27T12:04:05.827Z,102154.56
2023-02-27T12:06:18.122Z,102151.47
2023-02-27T12:08:31.829Z,102147.59
2023-02-27T12:10:48.530Z,102140.75
2023-02-27T12:12:56.410Z,102047.44
2023-02-27T12:15:08.209Z,102143.94
2023-02-27T12:17:21.266Z,102148.91
2023-02-27T12:19:31.156Z,102131.06
2023-02-27T12:21:38.817Z,102135.94
2023-02-27T12:23:47.008Z,102127.97
2023-02-27T12:25:56.286Z,102129.94
2023-02-27T12:28:05.561Z,102128.72
2023-02-27T12:30:16.234Z,102094.53
2023-02-27T12:32:24.207Z,102122.75
2023-02-27T12:34:29.428Z,102118.38
2023-02-27T12:36:33.235Z,102074.34
2023-02-27T12:38:36.999Z,102116.66
2023-02-27T12:40:53.712Z,102116.28
2023-02-27T12:43:13.999Z,102113.88
2023-02-27T12:45:42.722Z,102102.00
2023-02-27T12:47:49.339Z,102115.06
2023-02-27T12:49:59.312Z,102106.88
2023-02-27T12:52:13.881Z,102114.16
2023-02-27T12:54:36.955Z,102098.69
2023-02-27T12:56:51.109Z,102104.31
2023-02-27T12:59:03.996Z,102113.50
2023-02-27T13:01:21.188Z,102112.31
2023-02-27T13:03:29.689Z,102112.16
2023-02-27T13:05:42.926Z,102106.78
2023-02-27T13:07:53.252Z,102065.75
2023-02-27T13:10:01.162Z,102090.19
2023-02-27T13:12:12.361Z,102091.84
2023-02-27T13:14:30.646Z,102043.84
2023-02-27T13:16:38.384Z,102095.16
2023-02-27T13:18:48.930Z,102095.22
2023-02-27T13:20:58.060Z,102087.97
2023-02-27T13:23:17.180Z,102091.88
2023-02-27T13:25:21.768Z,102096.22
2023-02-27T13:27:29.535Z,102093.59
2023-02-27T13:29:39.063Z,102095.50
2023-02-27T13:31:51.183Z,102104.91
2023-02-27T13:34:03.459Z,102101.59
2023-02-27T13:36:14.665Z,102097.47
2023-02-27T13:38:42.436Z,102080.88
2023-02-27T13:40:45.882Z,102094.19
2023-02-27T13:43:00.395Z,102089.25
2023-02-27T13:45:08.005Z,102099.31
2023-02-27T13:47:40.641Z,102092.00
2023-02-27T13:49:44.246Z,102085.47
2023-02-27T13:51:49.075Z,102099.41
2023-02-27T13:54:09.879Z,102087.94
2023-02-27T13:56:22.896Z,102096.66
2023-02-27T13:58:26.390Z,102100.47
2023-02-27T14:00:33.412Z,102101.13
2023-02-27T14:02:58.453Z,102099.53
2023-02-27T14:05:07.182Z,102088.13
2023-02-27T14:07:13.000Z,102099.72
2023-02-27T14:09:21.311Z,102097.75
2023-02-27T14:11:28.086Z,102089.19
2023-02-27T14:14:04.114Z,102099.03
2023-02-27T14:16:11.284Z,102100.75
2023-02-27T14:18:49.501Z,102098.19
2023-02-27T14:20:53.174Z,102084.09
2023-02-27T14:23:16.442Z,102095.50
2023-02-27T14:25:27.165Z,102066.97
2023-02-27T14:27:37.802Z,102099.97
2023-02-27T14:29:46.313Z,102104.34
2023-02-27T14:31:52.203Z,102112.50
2023-02-27T14:33:59.129Z,102054.94
2023-02-27T14:36:05.166Z,102103.06
2023-02-27T14:38:12.596Z,102071.97
2023-02-27T14:40:29.638Z,102099.44
2023-02-27T14:42:47.745Z,101973.09
2023-02-27T14:44:52.507Z,102095.00
2023-02-27T14:46:59.671Z,102093.97
2023-02-27T14:49:06.743Z,102087.97
2023-02-27T14:51:11.142Z,102091.22
2023-02-27T14:53:24.318Z,102059.59
2023-02-27T14:55:30.344Z,102095.44
2023-02-27T14:57:33.745Z,102088.72
2023-02-27T14:59:44.432Z,102097.34
2023-02-27T15:01:47.893Z,102087.72
2023-02-27T15:03:55.015Z,102089.72
2023-02-27T15:06:02.034Z,102094.13
2023-02-27T15:08:05.618Z,102098.19
2023-02-27T15:10:17.509Z,102090.41
2023-02-27T15:12:22.915Z,102105.59
2023-02-27T15:14:35.176Z,102103.22
2023-02-27T15:16:40.484Z,102110.38
2023-02-27T15:18:43.812Z,102102.25
2023-02-27T15:20:57.842Z,102102.16
2023-02-27T15:23:04.212Z,102114.34
2023-02-27T15:25:09.164Z,102069.69
2023-02-27T15:27:17.049Z,102117.72
2023-02-27T15:29:23.944Z,102117.81
2023-02-27T15:31:32.028Z,102118.44
2023-02-27T15:33:37.841Z,102065.84
2023-02-27T15:35:45.444Z,102118.22
2023-02-27T15:37:53.924Z,102088.25
2023-02-27T15:39:59.428Z,102114.16
2023-02-27T15:42:05.265Z,102121.91
2023-02-27T15:44:08.713Z,102125.50
2023-02-27T15:46:12.417Z,102125.28
2023-02-27T15:48:16.976Z,102118.72
2023-02-27T15:50:28.299Z,102128.63
2023-02-27T15:52:39.646Z,102097.75
2023-02-27T15:54:48.971Z,102102.63
2023-02-27T15:56:53.516Z,102119.06
2023-02-27T15:59:00.642Z,102084.72
2023-02-27T16:01:08.801Z,102124.69
2023-02-27T16:03:16.480Z,102127.41
2023-02-27T16:05:26.020Z,102117.59
2023-02-27T16:07:30.881Z,102131.19
2023-02-27T16:09:36.428Z,102083.59
2023-02-27T16:11:41.295Z,102096.16
2023-02-27T16:13:44.709Z,102117.69
2023-02-27T16:15:59.772Z,102133.13
2023-02-27T16:18:22.304Z,102136.00
2023-02-27T16:20:42.387Z,102110.97
2023-02-27T16:23:03.706Z,102134.22
2023-02-27T16:25:13.456Z,102144.09
2023-02-27T16:27:23.515Z,102137.44
2023-02-27T16:29:36.036Z,102138.31
2023-02-27T16:31:41.692Z,102152.84
2023-02-27T16:33:45.115Z,102144.50
2023-02-27T16:35:48.847Z,102147.94
2023-02-27T16:37:53.511Z,102104.13
2023-02-27T16:39:56.849Z,102143.22
2023-02-27T16:42:01.727Z,102144.00
2023-02-27T16:44:06.533Z,102148.69
2023-02-27T16:46:09.893Z,102148.41
2023-02-27T16:48:13.284Z,102147.41
2023-02-27T16:50:22.497Z,102119.81
2023-02-27T16:52:25.927Z,102067.78
2023-02-27T16:54:29.249Z,102148.31
2023-02-27T16:56:38.455Z,102156.69
2023-02-27T16:58:42.793Z,102122.72
2023-02-27T17:00:47.492Z,102155.53
2023-02-27T17:02:51.128Z,102157.59
2023-02-27T17:04:54.835Z,102160.41
2023-02-27T17:07:00.123Z,102164.09
2023-02-27T17:09:04.722Z,102171.16
2023-02-27T17:11:08.915Z,102175.38
2023-02-27T17:13:12.906Z,102172.06
2023-02-27T17:15:17.015Z,102171.88
2023-02-27T17:17:21.810Z,102172.91
2023-02-27T17:19:27.280Z,102168.56
2023-02-27T17:21:30.783Z,102169.09
2023-02-27T17:23:35.243Z,102174.19
2023-02-27T17:25:38.695Z,102175.75
2023-02-27T17:27:42.919Z,102189.56
2023-02-27T17:29:46.226Z,102180.06
2023-02-27T17:31:49.884Z,102193.34
2023-02-27T17:33:54.720Z,102193.25
2023-02-27T17:36:02.837Z,102195.03
2023-02-27T17:38:07.478Z,102194.25
2023-02-27T17:40:12.783Z,102190.16
2023-02-27T17:42:18.478Z,102197.22
2023-02-27T17:44:22.280Z,102198.22
2023-02-27T17:46:27.508Z,102129.13
2023-02-27T17:48:31.222Z,102200.72
2023-02-27T17:50:36.185Z,102205.72
2023-02-27T17:52:39.886Z,102202.09
2023-02-27T17:54:43.436Z,102207.22
2023-02-27T17:56:46.762Z,102208.19
2023-02-27T17:58:50.213Z,102206.31
2023-02-27T18:00:53.500Z,102205.31
2023-02-27T18:02:56.860Z,102207.59
2023-02-27T18:05:00.216Z,102216.28
2023-02-27T18:07:04.894Z,102208.09
2023-02-27T18:09:08.234Z,102213.38
2023-02-27T18:11:12.302Z,102225.56
2023-02-27T18:13:15.746Z,102215.19
2023-02-27T18:15:19.542Z,102224.56
2023-02-27T18:17:22.961Z,102224.56
2023-02-27T18:19:26.888Z,102220.16
2023-02-27T18:21:30.343Z,102223.47
2023-02-27T18:23:35.351Z,102228.03
2023-02-27T18:25:38.776Z,102226.25
2023-02-27T18:27:42.205Z,102223.84
2023-02-27T18:29:45.552Z,102219.56
2023-02-27T18:31:50.150Z,102211.66
2023-02-27T18:33:53.627Z,102213.28
2023-02-27T18:35:57.000Z,102213.47
2023-02-27T18:38:02.241Z,102209.78
2023-02-27T18:40:08.494Z,102206.78
2023-02-27T18:42:11.924Z,102208.38
2023-02-27T18:44:15.268Z,102206.25
2023-02-27T18:46:18.825Z,102206.16
2023-02-27T18:48:22.557Z,102197.59
2023-02-27T18:50:26.451Z,102209.97
2023-02-27T18:52:30.885Z,102201.97
2023-02-27T18:54:34.374Z,102209.06
2023-02-27T18:56:39.066Z,102203.19
2023-02-27T18:58:42.611Z,102106.41
2023-02-27T19:00:45.978Z,102203.72
2023-02-27T19:02:49.392Z,102205.00
2023-02-27T19:04:52.768Z,102176.78
2023-02-27T19:06:56.216Z,102198.63
2023-02-27T19:08:59.738Z,102200.91
2023-02-27T19:11:03.758Z,102200.91
2023-02-27T19:13:09.460Z,102204.22
2023-02-27T19:15:13.047Z,102195.91
2023-02-27T19:17:17.523Z,102201.22
2023-02-27T19:19:21.146Z,102204.59
2023-02-27T19:21:24.567Z,102209.50
2023-02-27T19:23:27.908Z,102205.88
2023-02-27T19:25:31.986Z,102203.66
2023-02-27T19:27:35.397Z,102078.56
2023-02-27T19:29:40.043Z,102205.75
2023-02-27T19:31:45.157Z,102206.50
2023-02-27T19:33:48.713Z,102199.81
2023-02-27T19:35:52.317Z,102197.00
2023-02-27T19:37:58.150Z,102193.44
2023-02-27T19:40:04.003Z,102192.41
2023-02-27T19:42:07.475Z,102191.75
2023-02-27T19:44:12.180Z,102189.16
2023-02-27T19:46:19.107Z,102189.22
2023-02-27T19:48:22.937Z,102197.63
2023-02-27T19:50:26.681Z,102201.13
2023-02-27T19:52:30.026Z,102200.22
2023-02-27T19:54:33.333Z,102192.94
2023-02-27T19:56:36.620Z,102186.94
2023-02-27T19:58:40.312Z,102155.78
2023-02-27T20:00:43.693Z,102189.03
2023-02-27T20:02:48.448Z,102201.06
2023-02-27T20:04:51.900Z,102201.00
2023-02-27T20:06:55.244Z,102198.41
2023-02-27T20:08:59.892Z,102208.16
2023-02-27T20:11:05.639Z,102208.06
2023-02-27T20:13:09.068Z,102198.97
2023-02-27T20:15:12.848Z,102208.34
2023-02-27T20:17:16.262Z,102212.50
2023-02-27T20:19:22.534Z,102204.38
2023-02-27T20:21:28.356Z,102205.44
2023-02-27T20:23:33.006Z,102208.84
2023-02-27T20:25:36.388Z,102211.66
2023-02-27T20:27:39.729Z,102211.88
2023-02-27T20:29:48.258Z,102209.84
2023-02-27T20:31:53.081Z,102206.78
2023-02-27T20:33:58.071Z,102185.34
2023-02-27T20:36:05.255Z,102145.84
2023-02-27T20:38:08.605Z,102211.88
2023-02-27T20:40:13.463Z,102215.81
2023-02-27T20:42:16.911Z,102222.78
2023-02-27T20:44:20.282Z,102217.31
2023-02-27T20:46:26.534Z,102217.19
2023-02-27T20:48:30.018Z,102219.44
2023-02-27T20:50:33.355Z,102220.31
2023-02-27T20:52:38.099Z,102214.72
2023-02-27T20:54:41.520Z,102220.25
2023-02-27T20:56:44.866Z,102220.03
2023-02-27T20:58:48.567Z,102222.63
2023-02-27T21:00:52.189Z,102223.53
2023-02-27T21:02:55.669Z,102218.91
2023-02-27T21:04:59.546Z,102218.22
2023-02-27T21:07:03.094Z,102221.81
2023-02-27T21:09:07.855Z,102207.66
2023-02-27T21:11:13.795Z,102213.03
2023-02-27T21:13:17.214Z,102215.50
2023-02-27T21:15:20.624Z,102216.63
2023-02-27T21:17:26.068Z,102211.22
2023-02-27T21:19:29.681Z,102209.81
2023-02-27T21:21:34.936Z,102113.84
2023-02-27T21:23:41.297Z,102219.56
2023-02-27T21:25:46.235Z,102217.56
2023-02-27T21:27:49.902Z,102222.50
2023-02-27T21:29:53.512Z,102220.59
2023-02-27T21:31:57.031Z,102218.13
2023-02-27T21:34:02.230Z,102209.47
2023-02-27T21:36:06.152Z,102217.91
2023-02-27T21:38:09.525Z,102207.22
2023-02-27T21:40:13.747Z,102211.25
2023-02-27T21:42:18.684Z,102207.78
2023-02-27T21:44:24.970Z,102212.28
2023-02-27T21:46:29.585Z,102200.03
2023-02-27T21:48:33.254Z,102225.44
2023-02-27T21:50:36.889Z,102212.94
2023-02-27T21:52:40.567Z,102220.69
2023-02-27T21:54:44.002Z,102203.09
2023-02-27T21:56:49.027Z,102220.16
2023-02-27T21:58:56.401Z,102218.34
2023-02-27T22:01:00.185Z,102216.78
2023-02-27T22:03:03.554Z,102219.63
2023-02-27T22:05:07.800Z,102232.53
2023-02-27T22:07:11.569Z,102217.81
2023-02-27T22:09:15.074Z,102211.16
2023-02-27T22:11:18.364Z,102212.63
2023-02-27T22:13:21.795Z,102206.34
2023-02-27T22:15:26.438Z,102208.59
2023-02-27T22:17:29.736Z,102208.22
2023-02-27T22:19:33.231Z,102209.94
2023-02-27T22:21:38.217Z,102209.59
2023-02-27T22:23:41.580Z,102214.75
2023-02-27T22:25:44.983Z,102214.31
2023-02-27T22:27:48.630Z,102220.59
2023-02-27T22:29:52.248Z,102222.28
2023-02-27T22:31:57.287Z,102107.84
2023-02-27T22:34:02.367Z,102230.06
2023-02-27T22:36:08.040Z,102221.72
2023-02-27T22:38:11.534Z,102233.63
2023-02-27T22:40:16.288Z,102231.59
2023-02-27T22:42:19.939Z,102234.94
2023-02-27T22:44:23.281Z,102230.47
2023-02-27T22:46:29.065Z,102196.50
2023-02-27T22:48:34.119Z,102233.81
2023-02-27T22:50:37.441Z,102245.34
2023-02-27T22:52:40.993Z,102243.31
2023-02-27T22:54:44.395Z,102194.84
2023-02-27T22:56:50.848Z,102247.34
2023-02-27T22:58:54.774Z,102250.50
2023-02-27T23:00:58.140Z,102248.53
2023-02-27T23:03:01.391Z,102251.50
2023-02-27T23:05:07.156Z,102251.13
2023-02-27T23:07:10.756Z,102251.03
2023-02-27T23:09:18.621Z,102254.50
2023-02-27T23:11:22.452Z,102223.56
2023-02-27T23:13:25.892Z,102247.75
2023-02-27T23:15:29.905Z,102248.28
2023-02-27T23:17:33.323Z,102241.72
2023-02-27T23:19:36.656Z,102242.94
2023-02-27T23:21:41.802Z,102251.06
2023-02-27T23:23:45.342Z,102249.38
2023-02-27T23:25:48.676Z,102247.44
2023-02-27T23:27:52.335Z,102242.41
2023-02-27T23:29:55.646Z,102245.75
2023-02-27T23:31:59.021Z,102247.34
2023-02-27T23:34:03.006Z,102258.44
2023-02-27T23:36:07.118Z,102255.31
2023-02-27T23:38:11.877Z,102254.16
2023-02-27T23:40:15.464Z,102254.69
2023-02-27T23:42:37.555Z,102258.09
2023-02-27T23:44:58.728Z,102249.72
2023-02-27T23:47:02.171Z,102249.72
2023-02-27T23:49:05.641Z,102262.41
2023-02-27T23:51:10.728Z,102259.16
2023-02-27T23:53:16.127Z,102265.31
2023-02-27T23:55:21.271Z,102246.06
2023-02-27T23:57:24.677Z,102262.63
2023-02-27T23:59:29.291Z,102260.72
